Time;durP1;ratioP1;P1;durP2;ratioP2;P2;SDS_P1;SDS_P2;PMS_P1;PMS_P2;Temp;Humidity;BMP_temperature;BMP_pressure;BME280_temperature;BME280_humidity;BME280_pressure;Samples;Min_cycle;Max_cycle;Signal;HPM_P1;HPM_P2
2024/03/01 00:02:10;;;;;;;15.95;8.70;;;3.30;99.90;;;;;;5054013;28;20238;-73
2024/03/01 00:04:36;;;;;;;12.60;9.27;;;3.30;99.90;;;;;;5053843;28;20313;-73
2024/03/01 00:07:04;;;;;;;16.17;8.48;;;3.40;99.90;;;;;;5053822;28;20232;-73
2024/03/01 00:09:30;;;;;;;13.75;8.25;;;3.40;99.90;;;;;;5053495;28;20206;-73
2024/03/01 00:11:57;;;;;;;14.07;7.40;;;3.40;99.90;;;;;;5053804;28;20776;-73
2024/03/01 00:14:24;;;;;;;16.17;8.52;;;3.40;99.90;;;;;;5053955;28;20227;-73
2024/03/01 00:16:51;;;;;;;14.52;8.57;;;3.50;99.90;;;;;;5053701;28;20217;-73
2024/03/01 00:19:19;;;;;;;15.95;8.13;;;3.50;99.90;;;;;;5053480;28;20202;-74
2024/03/01 00:21:46;;;;;;;15.35;7.40;;;3.50;99.90;;;;;;5053619;28;20223;-73
2024/03/01 00:24:12;;;;;;;15.68;8.23;;;3.50;99.90;;;;;;5053634;28;20322;-73
2024/03/01 00:26:39;;;;;;;13.45;7.97;;;3.60;99.90;;;;;;5053676;28;20573;-73
2024/03/01 00:29:06;;;;;;;14.05;8.57;;;3.60;99.90;;;;;;5053318;28;20304;-73
2024/03/01 00:31:33;;;;;;;16.77;8.73;;;3.70;99.90;;;;;;5053360;28;20719;-73
2024/03/01 00:33:59;;;;;;;13.93;9.00;;;3.70;99.90;;;;;;5053244;28;20227;-73
2024/03/01 00:36:27;;;;;;;14.02;7.60;;;3.70;99.90;;;;;;5053450;28;20209;-73
2024/03/01 00:38:54;;;;;;;13.00;8.77;;;3.70;99.90;;;;;;5052970;28;20280;-73
2024/03/01 00:41:21;;;;;;;16.35;7.97;;;3.70;99.90;;;;;;5053241;28;20230;-73
2024/03/01 00:43:48;;;;;;;10.27;8.00;;;3.70;99.90;;;;;;5053186;28;20231;-73
2024/03/01 00:46:15;;;;;;;14.73;9.25;;;3.60;99.90;;;;;;5054318;28;20301;-73
2024/03/01 00:48:42;;;;;;;16.00;8.57;;;3.70;99.90;;;;;;5052921;28;20214;-73
2024/03/01 00:51:08;;;;;;;15.80;8.18;;;3.70;99.90;;;;;;5053006;28;20205;-73
2024/03/01 00:53:37;;;;;;;17.27;9.35;;;3.70;99.90;;;;;;5052824;28;20253;-73
2024/03/01 00:56:04;;;;;;;18.27;7.70;;;3.70;99.90;;;;;;5052991;28;20203;-73
2024/03/01 00:58:31;;;;;;;16.35;7.18;;;3.70;99.90;;;;;;5052970;28;20210;-73
2024/03/01 01:00:58;;;;;;;17.38;7.80;;;3.70;99.90;;;;;;5052663;28;20227;-73
2024/03/01 01:03:25;;;;;;;17.10;8.65;;;3.70;99.90;;;;;;5052879;28;20582;-73
2024/03/01 01:05:51;;;;;;;13.73;8.50;;;3.60;99.90;;;;;;5052808;28;20215;-73
2024/03/01 01:08:18;;;;;;;16.83;6.85;;;3.50;99.90;;;;;;5052772;28;20555;-73
2024/03/01 01:10:46;;;;;;;14.07;8.40;;;3.50;99.90;;;;;;5052676;28;20202;-73
2024/03/01 01:13:13;;;;;;;17.30;8.73;;;3.50;99.90;;;;;;5052671;28;20221;-73
2024/03/01 01:15:39;;;;;;;9.68;6.82;;;3.40;99.90;;;;;;5052628;28;20249;-73
2024/03/01 01:18:06;;;;;;;19.02;7.82;;;3.40;99.90;;;;;;5052477;28;20217;-73
2024/03/01 01:20:33;;;;;;;16.77;9.93;;;3.40;99.90;;;;;;5052260;28;20206;-74
2024/03/01 01:22:59;;;;;;;14.23;8.10;;;3.40;99.90;;;;;;5052406;28;20221;-73
2024/03/01 01:25:26;;;;;;;14.23;8.65;;;3.40;99.90;;;;;;5052529;28;20227;-75
2024/03/01 01:27:54;;;;;;;17.35;9.57;;;3.40;99.90;;;;;;5052370;28;20660;-74
2024/03/01 01:30:21;;;;;;;18.40;8.55;;;3.50;99.90;;;;;;5052468;28;20600;-74
2024/03/01 01:32:48;;;;;;;12.63;7.75;;;3.50;99.90;;;;;;5052456;28;20199;-74
2024/03/01 01:35:14;;;;;;;14.05;9.38;;;3.50;99.90;;;;;;5052157;28;20234;-72
2024/03/01 01:37:41;;;;;;;17.35;8.48;;;3.60;99.90;;;;;;5052322;28;20204;-74
2024/03/01 01:40:09;;;;;;;14.65;8.93;;;3.60;99.90;;;;;;5051823;28;20216;-74
2024/03/01 01:42:36;;;;;;;20.25;9.20;;;3.60;99.90;;;;;;5052118;28;20227;-74
2024/03/01 01:45:05;;;;;;;13.63;8.10;;;3.60;99.90;;;;;;5051964;28;20233;-74
2024/03/01 01:47:32;;;;;;;17.27;9.15;;;3.60;99.90;;;;;;5052010;28;20210;-74
2024/03/01 01:49:58;;;;;;;13.88;8.35;;;3.70;99.90;;;;;;5051601;28;20695;-74
2024/03/01 01:52:26;;;;;;;17.77;9.55;;;3.60;99.90;;;;;;5051938;28;20578;-74
2024/03/01 01:54:53;;;;;;;16.73;9.70;;;3.70;99.90;;;;;;5051641;28;20250;-74
2024/03/01 01:57:20;;;;;;;18.80;9.07;;;3.70;99.90;;;;;;5051403;28;20216;-74
2024/03/01 01:59:48;;;;;;;17.42;8.68;;;3.80;99.90;;;;;;5051715;28;20222;-74
2024/03/01 02:02:16;;;;;;;12.68;7.72;;;3.80;99.90;;;;;;5051669;28;20240;-74
2024/03/01 02:04:43;;;;;;;13.70;8.00;;;3.80;99.90;;;;;;5051905;28;20603;-74
2024/03/01 02:07:09;;;;;;;19.23;9.13;;;3.80;99.90;;;;;;5051803;28;20217;-75
2024/03/01 02:09:37;;;;;;;13.77;7.38;;;3.80;99.90;;;;;;5051457;28;20215;-74
2024/03/01 02:12:03;;;;;;;15.18;8.82;;;3.80;99.90;;;;;;5051678;28;20221;-74
2024/03/01 02:14:30;;;;;;;13.25;8.50;;;3.80;99.90;;;;;;5051509;28;20230;-74
2024/03/01 02:16:57;;;;;;;17.58;9.98;;;3.80;99.90;;;;;;5051588;28;20582;-74
2024/03/01 02:19:25;;;;;;;11.98;7.28;;;3.80;99.90;;;;;;5051336;28;20218;-74
2024/03/01 02:21:58;;;;;;;17.77;7.63;;;3.80;99.90;;;;;;5051435;28;20229;-74
2024/03/01 02:24:26;;;;;;;17.48;8.35;;;3.70;99.90;;;;;;5051424;28;20575;-74
2024/03/01 02:26:54;;;;;;;18.90;9.27;;;3.80;99.90;;;;;;5051472;28;20207;-74
2024/03/01 02:29:21;;;;;;;12.40;8.32;;;3.70;99.90;;;;;;5051094;28;20216;-74
2024/03/01 02:31:48;;;;;;;15.60;8.20;;;3.70;99.90;;;;;;5051350;28;20687;-74
2024/03/01 02:34:15;;;;;;;11.57;8.40;;;3.70;99.90;;;;;;5051074;28;20237;-74
2024/03/01 02:36:41;;;;;;;19.13;8.88;;;3.80;99.90;;;;;;5051276;28;20213;-74
2024/03/01 02:39:17;;;;;;;13.70;8.95;;;3.80;99.90;;;;;;5050847;28;20207;-74
2024/03/01 02:41:45;;;;;;;13.77;7.97;;;3.80;99.90;;;;;;5051246;28;20625;-74
2024/03/01 02:44:12;;;;;;;19.95;9.05;;;3.80;99.90;;;;;;5050915;28;20598;-74
2024/03/01 02:46:39;;;;;;;14.63;8.50;;;3.70;99.90;;;;;;5051137;28;20213;-74
2024/03/01 02:49:06;;;;;;;16.15;8.73;;;3.80;99.90;;;;;;5050682;28;20209;-74
2024/03/01 02:51:33;;;;;;;18.73;9.60;;;3.70;99.90;;;;;;5051138;28;20207;-74
2024/03/01 02:54:00;;;;;;;15.02;8.00;;;3.80;99.90;;;;;;5050775;28;20332;-74
2024/03/01 02:56:26;;;;;;;16.75;10.05;;;3.70;99.90;;;;;;5051103;28;20206;-74
2024/03/01 02:58:54;;;;;;;13.25;8.50;;;3.80;99.90;;;;;;5050826;28;20210;-74
2024/03/01 03:01:23;;;;;;;21.40;11.23;;;3.90;99.90;;;;;;5050808;28;20226;-74
2024/03/01 03:03:50;;;;;;;14.95;8.68;;;3.90;99.90;;;;;;5050981;28;20314;-74
2024/03/01 03:06:16;;;;;;;13.07;7.00;;;3.90;99.90;;;;;;5050717;28;20669;-74
2024/03/01 03:08:43;;;;;;;14.02;7.70;;;4.00;99.90;;;;;;5051947;28;20212;-74
2024/03/01 03:11:10;;;;;;;15.45;9.25;;;4.00;99.90;;;;;;5054861;28;20228;-74
2024/03/01 03:13:37;;;;;;;14.88;8.48;;;4.00;99.90;;;;;;5054926;28;20222;-74
2024/03/01 03:16:06;;;;;;;13.05;7.32;;;4.00;99.90;;;;;;5054868;28;20405;-74
2024/03/01 03:18:33;;;;;;;16.98;8.35;;;3.80;99.90;;;;;;5054869;28;20201;-72
2024/03/01 03:20:59;;;;;;;12.27;8.18;;;3.70;99.90;;;;;;5054509;28;20207;-74
2024/03/01 03:23:26;;;;;;;13.98;6.90;;;3.70;99.90;;;;;;5054572;28;20587;-74
2024/03/01 03:25:53;;;;;;;14.57;7.40;;;3.70;99.90;;;;;;5054846;28;20212;-74
2024/03/01 03:28:21;;;;;;;19.52;9.00;;;3.80;99.90;;;;;;5054393;28;20223;-74
2024/03/01 03:30:48;;;;;;;16.02;8.45;;;3.80;99.90;;;;;;5054629;28;20256;-74
2024/03/01 03:33:16;;;;;;;20.60;7.75;;;3.90;99.90;;;;;;5054269;28;20207;-74
2024/03/01 03:35:43;;;;;;;13.25;7.45;;;4.00;99.90;;;;;;5054619;28;20213;-74
2024/03/01 03:38:10;;;;;;;14.68;6.93;;;4.00;99.90;;;;;;5054243;28;20233;-74
2024/03/01 03:40:36;;;;;;;17.73;7.72;;;4.10;99.90;;;;;;5054354;28;20214;-74
2024/03/01 03:43:04;;;;;;;15.60;9.57;;;4.10;99.90;;;;;;5054286;28;20227;-74
2024/03/01 03:45:30;;;;;;;15.73;8.20;;;4.10;99.90;;;;;;5054151;28;20716;-74
2024/03/01 03:47:58;;;;;;;12.52;7.30;;;4.20;99.90;;;;;;5054281;28;20589;-74
2024/03/01 03:50:26;;;;;;;13.45;8.77;;;4.20;99.90;;;;;;5053920;28;20215;-74
2024/03/01 03:52:52;;;;;;;17.08;7.35;;;4.20;99.90;;;;;;5054239;28;20210;-74
2024/03/01 03:55:20;;;;;;;18.45;7.32;;;4.20;99.90;;;;;;5051514;28;20231;-74
2024/03/01 03:57:46;;;;;;;13.60;7.88;;;4.20;99.90;;;;;;5051763;28;20203;-74
2024/03/01 04:00:15;;;;;;;12.00;8.25;;;4.20;99.90;;;;;;5051303;28;20212;-74
2024/03/01 04:02:43;;;;;;;15.00;8.90;;;4.20;99.90;;;;;;5048780;28;20246;-74
2024/03/01 04:05:09;;;;;;;16.38;9.80;;;4.20;99.90;;;;;;5048845;28;20216;-74
2024/03/01 04:07:38;;;;;;;16.15;7.93;;;4.20;99.90;;;;;;5051555;28;20603;-74
2024/03/01 04:10:06;;;;;;;17.92;9.23;;;4.20;99.90;;;;;;5051217;28;20201;-74
2024/03/01 04:12:32;;;;;;;17.27;9.07;;;4.20;99.90;;;;;;5051302;28;20208;-73
2024/03/01 04:14:59;;;;;;;18.38;9.65;;;4.20;99.90;;;;;;5051417;28;20227;-74
2024/03/01 04:17:28;;;;;;;20.05;9.60;;;4.30;99.90;;;;;;5050247;28;20574;-74
2024/03/01 04:19:55;;;;;;;17.20;8.15;;;4.30;99.90;;;;;;5048073;28;20244;-73
2024/03/01 04:22:22;;;;;;;20.40;10.15;;;4.40;99.90;;;;;;5050213;28;20236;-73
2024/03/01 04:24:50;;;;;;;18.00;9.82;;;4.40;99.90;;;;;;5051349;28;20273;-73
2024/03/01 04:27:17;;;;;;;17.25;10.57;;;4.50;99.90;;;;;;5050283;28;20224;-73
2024/03/01 04:29:43;;;;;;;22.13;9.25;;;4.50;99.90;;;;;;5049275;28;20206;-73
2024/03/01 04:32:10;;;;;;;18.40;10.23;;;4.50;99.90;;;;;;5049563;28;20609;-73
2024/03/01 04:34:36;;;;;;;13.18;8.60;;;4.50;99.90;;;;;;5053464;28;20228;-73
2024/03/01 04:37:03;;;;;;;13.00;7.90;;;4.50;99.90;;;;;;5053402;28;20207;-73
2024/03/01 04:39:32;;;;;;;21.60;9.90;;;4.50;99.90;;;;;;5052263;28;20216;-73
2024/03/01 04:42:00;;;;;;;18.58;10.23;;;4.50;99.90;;;;;;5052786;28;20237;-73
2024/03/01 04:44:26;;;;;;;15.60;8.43;;;4.60;99.90;;;;;;5052640;28;20228;-73
2024/03/01 04:46:53;;;;;;;21.50;10.35;;;4.50;99.90;;;;;;5052710;28;20212;-73
2024/03/01 04:49:20;;;;;;;15.00;8.35;;;4.50;99.90;;;;;;5052074;28;20202;-73
2024/03/01 04:51:47;;;;;;;14.80;9.45;;;4.50;99.90;;;;;;5052737;28;20574;-73
2024/03/01 04:54:13;;;;;;;22.27;9.80;;;4.60;99.90;;;;;;5052256;28;20239;-73
2024/03/01 04:56:40;;;;;;;17.42;9.20;;;4.60;99.90;;;;;;5053116;28;20212;-73
2024/03/01 04:59:08;;;;;;;17.27;9.25;;;4.50;99.90;;;;;;5052794;28;20208;-73
2024/03/01 05:01:39;;;;;;;15.05;7.95;;;4.50;99.90;;;;;;5052876;28;20736;-73
2024/03/01 05:04:08;;;;;;;14.38;9.10;;;4.50;99.90;;;;;;5052849;28;20236;-73
2024/03/01 05:06:36;;;;;;;15.98;9.15;;;4.50;99.90;;;;;;5052781;28;20204;-73
2024/03/01 05:09:03;;;;;;;17.15;9.07;;;4.40;99.90;;;;;;5052678;28;20231;-73
2024/03/01 05:11:33;;;;;;;22.05;8.80;;;4.40;99.90;;;;;;5052596;28;20212;-73
2024/03/01 05:14:00;;;;;;;11.00;7.50;;;4.40;99.90;;;;;;5052792;28;20653;-73
2024/03/01 05:16:28;;;;;;;17.30;9.07;;;4.40;99.90;;;;;;5052616;28;20207;-73
2024/03/01 05:18:55;;;;;;;16.88;8.95;;;4.40;99.90;;;;;;5052446;28;20657;-73
2024/03/01 05:21:22;;;;;;;17.77;9.15;;;4.40;99.90;;;;;;5052461;28;20228;-73
2024/03/01 05:23:49;;;;;;;17.92;8.63;;;4.50;99.90;;;;;;5052539;28;20232;-73
2024/03/01 05:26:16;;;;;;;17.70;8.90;;;4.50;99.90;;;;;;5052401;28;20224;-73
2024/03/01 05:28:43;;;;;;;15.30;8.35;;;4.50;99.90;;;;;;5052171;28;20208;-73
2024/03/01 05:31:09;;;;;;;13.77;8.20;;;4.50;99.90;;;;;;5051745;28;20239;-73
2024/03/01 05:33:37;;;;;;;15.88;9.65;;;4.60;99.90;;;;;;5052040;28;20255;-73
2024/03/01 05:36:05;;;;;;;19.95;10.05;;;4.50;99.90;;;;;;5052436;28;20218;-73
2024/03/01 05:38:32;;;;;;;16.85;8.52;;;4.50;99.90;;;;;;5052063;28;20277;-73
2024/03/01 05:41:00;;;;;;;16.83;9.52;;;4.60;99.90;;;;;;5052462;28;20202;-74
2024/03/01 05:43:26;;;;;;;18.98;10.27;;;4.60;99.90;;;;;;5052212;28;20704;-73
2024/03/01 05:45:54;;;;;;;14.27;9.38;;;4.60;99.90;;;;;;5053406;28;20208;-74
2024/03/01 05:48:23;;;;;;;12.75;8.18;;;4.60;99.90;;;;;;5051662;28;20216;-71
2024/03/01 05:50:51;;;;;;;14.55;8.48;;;4.70;99.90;;;;;;5052034;28;20207;-72
2024/03/01 05:53:18;;;;;;;13.30;8.63;;;4.70;99.90;;;;;;5051568;28;20298;-71
2024/03/01 05:55:44;;;;;;;15.60;9.32;;;4.70;99.90;;;;;;5052120;28;20224;-72
2024/03/01 05:58:11;;;;;;;17.25;9.63;;;4.80;99.90;;;;;;5051728;28;20208;-71
2024/03/01 06:00:40;;;;;;;15.68;8.25;;;4.80;99.90;;;;;;5051481;28;20216;-73
2024/03/01 06:03:07;;;;;;;18.45;8.07;;;4.80;99.90;;;;;;5051785;28;20261;-74
2024/03/01 06:05:33;;;;;;;13.38;8.20;;;4.80;99.90;;;;;;5051482;28;20323;-71
2024/03/01 06:08:02;;;;;;;22.20;9.38;;;4.80;99.90;;;;;;5051841;28;20595;-71
2024/03/01 06:10:28;;;;;;;20.70;10.40;;;4.80;99.90;;;;;;5051532;28;20586;-71
2024/03/01 06:12:56;;;;;;;15.45;9.90;;;4.80;99.90;;;;;;5051873;28;20212;-73
2024/03/01 06:15:23;;;;;;;20.95;10.32;;;4.80;99.90;;;;;;5050895;28;20231;-73
2024/03/01 06:17:49;;;;;;;17.23;8.00;;;4.90;99.90;;;;;;5051644;28;20212;-73
2024/03/01 06:20:16;;;;;;;14.43;9.07;;;4.90;99.90;;;;;;5050888;28;20230;-74
2024/03/01 06:22:43;;;;;;;14.85;9.45;;;4.90;99.90;;;;;;5051395;28;20228;-73
2024/03/01 06:25:11;;;;;;;14.75;9.63;;;5.00;99.90;;;;;;5051551;28;20300;-73
2024/03/01 06:27:38;;;;;;;16.33;9.90;;;5.00;99.90;;;;;;5051125;28;20208;-71
2024/03/01 06:30:06;;;;;;;18.98;9.38;;;5.00;99.90;;;;;;5051290;28;20208;-70
2024/03/01 06:32:33;;;;;;;17.58;9.85;;;5.00;99.90;;;;;;5051171;28;20727;-70
2024/03/01 06:35:00;;;;;;;19.48;9.73;;;5.10;99.90;;;;;;5051457;28;20251;-70
2024/03/01 06:37:26;;;;;;;19.60;10.85;;;5.10;99.90;;;;;;5051225;28;20212;-71
2024/03/01 06:39:53;;;;;;;18.73;8.25;;;5.10;99.90;;;;;;5051434;28;20212;-72
2024/03/01 06:42:21;;;;;;;17.38;9.15;;;5.10;99.90;;;;;;5051015;28;20236;-72
2024/03/01 06:44:48;;;;;;;15.88;9.13;;;5.20;99.90;;;;;;5051433;28;20243;-72
2024/03/01 06:47:15;;;;;;;15.38;8.25;;;5.20;99.90;;;;;;5051305;28;20215;-72
2024/03/01 06:49:42;;;;;;;20.85;9.73;;;5.20;99.90;;;;;;5042871;28;20219;-72
2024/03/01 06:52:10;;;;;;;14.05;7.10;;;5.20;99.90;;;;;;5048249;28;20207;-72
2024/03/01 06:54:36;;;;;;;14.95;9.00;;;5.20;99.90;;;;;;5050916;28;20410;-72
2024/03/01 06:57:03;;;;;;;18.90;8.20;;;5.30;99.90;;;;;;5047430;28;20210;-72
2024/03/01 06:59:31;;;;;;;18.40;9.02;;;5.30;99.90;;;;;;5043557;28;20662;-71
2024/03/01 07:01:58;;;;;;;16.75;9.38;;;5.30;99.90;;;;;;5044610;28;20212;-72
2024/03/01 07:04:26;;;;;;;17.55;9.52;;;5.40;99.90;;;;;;5050407;28;20236;-71
2024/03/01 07:06:53;;;;;;;16.73;8.65;;;5.40;99.90;;;;;;5050844;28;20212;-72
2024/03/01 07:09:23;;;;;;;17.40;9.35;;;5.50;99.90;;;;;;5050433;28;20564;-72
2024/03/01 07:11:50;;;;;;;16.25;9.75;;;5.50;99.90;;;;;;5050354;28;20255;-72
2024/03/01 07:14:16;;;;;;;18.92;11.60;;;5.50;99.90;;;;;;5050369;28;20307;-72
2024/03/01 07:16:45;;;;;;;14.73;8.40;;;5.60;99.90;;;;;;5050267;28;20288;-72
2024/03/01 07:19:16;;;;;;;15.90;8.00;;;5.70;99.90;;;;;;5050386;28;20213;-72
2024/03/01 07:21:43;;;;;;;17.75;9.93;;;5.80;99.90;;;;;;5042337;28;20247;-72
2024/03/01 07:24:11;;;;;;;16.60;9.30;;;5.90;99.90;;;;;;5050369;28;20249;-72
2024/03/01 07:26:38;;;;;;;17.65;9.65;;;5.90;99.90;;;;;;5050286;28;20213;-72
2024/03/01 07:29:06;;;;;;;15.55;9.50;;;5.90;99.90;;;;;;5050035;28;20619;-71
2024/03/01 07:31:33;;;;;;;16.58;7.63;;;6.00;99.90;;;;;;5049980;28;20202;-71
2024/03/01 07:34:02;;;;;;;18.52;9.27;;;6.00;99.90;;;;;;5050443;28;20217;-72
2024/03/01 07:36:29;;;;;;;10.98;8.38;;;6.20;99.90;;;;;;5049886;28;20270;-72
2024/03/01 07:38:56;;;;;;;17.55;9.80;;;6.30;99.90;;;;;;5049773;28;20212;-72
2024/03/01 07:41:23;;;;;;;16.40;7.78;;;6.30;99.90;;;;;;5048983;28;20292;-72
2024/03/01 07:43:52;;;;;;;13.75;8.27;;;6.40;99.90;;;;;;5040913;28;20224;-76
2024/03/01 07:46:19;;;;;;;16.20;8.90;;;6.50;99.90;;;;;;5058766;28;20724;-75
2024/03/01 07:48:46;;;;;;;16.88;9.70;;;6.60;99.90;;;;;;5049475;28;20193;-74
2024/03/01 07:51:15;;;;;;;11.63;9.00;;;6.70;99.90;;;;;;5043104;28;20202;-73
2024/03/01 07:53:42;;;;;;;11.15;7.25;;;6.80;99.90;;;;;;5048999;28;20706;-73
2024/03/01 07:56:09;;;;;;;14.23;8.02;;;6.80;99.90;;;;;;5053393;28;20201;-72
2024/03/01 07:58:37;;;;;;;15.57;8.57;;;6.90;99.90;;;;;;5045976;28;20891;-73
2024/03/01 08:01:04;;;;;;;12.38;7.35;;;7.00;99.90;;;;;;5053233;28;20209;-73
2024/03/01 08:03:34;;;;;;;13.60;8.10;;;7.10;99.90;;;;;;5053382;28;20228;-73
2024/03/01 08:06:01;;;;;;;10.63;7.13;;;7.20;99.90;;;;;;5046469;28;20200;-73
2024/03/01 08:08:42;;;;;;;15.05;8.05;;;7.20;99.90;;;;;;5053032;28;20681;-73
2024/03/01 08:11:09;;;;;;;10.43;6.78;;;7.30;99.90;;;;;;5047401;28;20194;-72
2024/03/01 08:13:36;;;;;;;14.82;7.38;;;7.40;99.90;;;;;;5052001;28;20225;-72
2024/03/01 08:16:06;;;;;;;11.55;7.30;;;7.40;99.90;;;;;;5041095;28;20202;-73
2024/03/01 08:18:37;;;;;;;13.32;7.13;;;7.50;99.90;;;;;;5052115;28;20243;-73
2024/03/01 08:21:05;;;;;;;14.77;6.65;;;7.60;99.90;;;;;;5053538;28;20204;-72
2024/03/01 08:23:38;;;;;;;14.07;6.40;;;7.70;99.90;;;;;;5052381;28;20265;-73
2024/03/01 08:26:11;;;;;;;10.43;7.60;;;7.60;99.90;;;;;;5053410;28;20421;-73
2024/03/01 08:28:40;;;;;;;8.88;6.22;;;7.70;99.90;;;;;;5050769;28;20211;-73
2024/03/01 08:31:22;;;;;;;8.50;6.00;;;7.70;99.90;;;;;;5048561;28;20263;-73
2024/03/01 08:33:51;;;;;;;8.02;5.93;;;7.80;99.90;;;;;;5052677;28;20209;-73
2024/03/01 08:36:20;;;;;;;10.13;5.82;;;7.80;99.90;;;;;;5053329;28;20220;-73
2024/03/01 08:39:15;;;;;;;7.85;5.70;;;7.90;99.90;;;;;;5046320;28;20237;-73
2024/03/01 08:41:45;;;;;;;13.63;6.05;;;8.00;99.90;;;;;;5052013;28;20202;-73
2024/03/01 08:44:49;;;;;;;12.95;7.65;;;8.00;99.90;;;;;;5052694;28;20223;-73
2024/03/01 08:47:25;;;;;;;8.05;5.00;;;8.10;99.90;;;;;;5033277;28;20288;-73
2024/03/01 08:50:22;;;;;;;7.95;6.25;;;8.10;99.90;;;;;;5052411;28;20205;-73
2024/03/01 08:52:49;;;;;;;10.32;5.60;;;8.10;99.90;;;;;;5051503;28;20203;-73
2024/03/01 08:55:43;;;;;;;9.32;4.82;;;8.00;99.90;;;;;;5052645;28;20224;-72
2024/03/01 08:58:23;;;;;;;9.23;5.57;;;8.10;99.90;;;;;;5048436;28;20251;-73
2024/03/01 09:00:53;;;;;;;8.63;5.35;;;8.00;99.90;;;;;;5051654;28;20705;-73
2024/03/01 09:03:23;;;;;;;9.73;5.40;;;8.00;99.90;;;;;;5052390;28;20313;-73
2024/03/01 09:05:53;;;;;;;11.05;5.32;;;7.90;99.90;;;;;;5044618;28;20552;-73
2024/03/01 09:08:24;;;;;;;6.88;5.15;;;7.90;99.90;;;;;;5045661;28;20285;-73
2024/03/01 09:10:56;;;;;;;7.10;5.13;;;7.90;99.90;;;;;;5052141;28;20194;-73
2024/03/01 09:13:25;;;;;;;7.47;5.05;;;7.90;99.90;;;;;;5052175;28;20251;-73
2024/03/01 09:15:54;;;;;;;9.75;4.88;;;7.90;99.90;;;;;;5045547;28;20205;-73
2024/03/01 09:18:44;;;;;;;7.20;4.70;;;7.90;99.90;;;;;;5047653;28;20580;-73
2024/03/01 09:21:42;;;;;;;7.90;5.10;;;7.90;99.90;;;;;;5043836;28;20280;-72
2024/03/01 09:24:13;;;;;;;12.18;4.88;;;8.00;99.90;;;;;;5047737;28;20252;-73
2024/03/01 09:26:42;;;;;;;7.15;4.40;;;8.00;99.90;;;;;;5045443;28;20225;-73
2024/03/01 09:29:30;;;;;;;7.78;4.53;;;8.00;99.90;;;;;;5051793;28;20202;-73
2024/03/01 09:31:59;;;;;;;8.40;5.30;;;8.00;99.90;;;;;;5045435;28;20214;-73
2024/03/01 09:34:33;;;;;;;6.95;4.53;;;8.00;99.90;;;;;;5043644;28;20306;-73
2024/03/01 09:37:01;;;;;;;5.72;3.55;;;8.00;99.90;;;;;;5051843;28;20212;-73
2024/03/01 09:39:29;;;;;;;7.93;4.90;;;8.10;99.90;;;;;;5051766;28;20296;-73
2024/03/01 09:42:28;;;;;;;8.73;4.97;;;8.20;99.90;;;;;;5045604;28;20201;-73
2024/03/01 09:45:09;;;;;;;8.48;5.18;;;8.20;99.90;;;;;;5030408;28;20604;-72
2024/03/01 09:47:49;;;;;;;4.85;3.67;;;8.20;99.90;;;;;;5050908;28;20215;-73
2024/03/01 09:50:32;;;;;;;5.65;3.75;;;8.20;99.90;;;;;;5041908;28;20578;-72
2024/03/01 09:53:12;;;;;;;5.53;3.33;;;8.20;99.90;;;;;;5045394;28;20804;-72
2024/03/01 09:55:47;;;;;;;6.97;3.90;;;8.30;99.90;;;;;;5049858;28;20203;-72
2024/03/01 09:58:23;;;;;;;4.18;3.45;;;8.10;99.90;;;;;;5047694;28;20237;-72
2024/03/01 10:01:01;;;;;;;7.65;4.07;;;8.10;99.90;;;;;;5050084;28;20617;-72
2024/03/01 10:03:38;;;;;;;7.60;3.95;;;8.10;99.90;;;;;;5051499;28;20216;-72
2024/03/01 10:06:33;;;;;;;9.38;3.70;;;8.00;99.90;;;;;;5050895;28;20202;-72
2024/03/01 10:09:07;;;;;;;7.30;4.05;;;8.10;99.90;;;;;;5041296;28;20202;-72
2024/03/01 10:11:51;;;;;;;5.47;3.95;;;8.20;99.90;;;;;;5056362;28;20233;-72
2024/03/01 10:14:31;;;;;;;8.38;4.60;;;8.10;99.90;;;;;;5044348;28;20239;-72
2024/03/01 10:17:07;;;;;;;5.57;3.88;;;8.10;99.90;;;;;;5046810;28;20227;-73
2024/03/01 10:19:57;;;;;;;8.73;5.75;;;8.20;99.90;;;;;;5051634;28;20200;-72
2024/03/01 10:22:35;;;;;;;6.55;4.35;;;8.20;99.90;;;;;;5049660;28;20199;-73
2024/03/01 10:25:15;;;;;;;4.80;4.28;;;8.30;99.90;;;;;;5050083;28;20244;-73
2024/03/01 10:27:48;;;;;;;6.32;4.30;;;8.30;99.90;;;;;;5044883;28;20230;-73
2024/03/01 10:30:18;;;;;;;4.78;3.80;;;8.40;99.90;;;;;;5059295;28;20197;-72
2024/03/01 10:33:13;;;;;;;6.40;4.43;;;8.50;99.90;;;;;;5050677;28;20205;-73
2024/03/01 10:35:45;;;;;;;9.70;4.53;;;8.60;99.90;;;;;;5050724;28;20203;-72
2024/03/01 10:38:16;;;;;;;6.15;4.00;;;8.60;99.90;;;;;;5051065;28;20284;-72
2024/03/01 10:40:55;;;;;;;9.35;4.82;;;8.60;99.90;;;;;;5048331;28;20203;-72
2024/03/01 10:43:27;;;;;;;6.88;4.05;;;8.60;99.90;;;;;;5050626;28;20211;-75
2024/03/01 10:46:01;;;;;;;6.60;4.18;;;8.60;99.90;;;;;;5084754;22;20621;-74
2024/03/01 10:48:37;;;;;;;6.00;3.95;;;8.60;99.90;;;;;;5031190;28;20260;-73
2024/03/01 10:51:08;;;;;;;5.43;4.45;;;8.40;99.90;;;;;;5025467;28;20209;-73
2024/03/01 10:53:41;;;;;;;4.22;3.80;;;8.50;99.90;;;;;;5030578;28;20708;-73
2024/03/01 10:56:14;;;;;;;7.43;5.15;;;8.50;99.90;;;;;;5026795;28;20276;-72
2024/03/01 10:58:48;;;;;;;6.50;3.70;;;8.50;99.90;;;;;;5026715;28;20271;-72
2024/03/01 11:01:23;;;;;;;5.97;3.90;;;8.50;99.90;;;;;;5030884;28;20204;-73
2024/03/01 11:03:57;;;;;;;7.88;4.50;;;8.50;99.90;;;;;;5028396;28;20681;-73
2024/03/01 11:06:32;;;;;;;5.47;4.05;;;8.70;99.90;;;;;;5030825;28;20209;-73
2024/03/01 11:09:02;;;;;;;4.10;3.50;;;8.80;99.90;;;;;;5030017;28;20605;-73
2024/03/01 11:11:35;;;;;;;6.50;4.13;;;8.90;99.90;;;;;;5030266;28;20243;-73
2024/03/01 11:14:04;;;;;;;5.43;3.33;;;9.10;99.90;;;;;;5030169;28;20220;-73
2024/03/01 11:16:37;;;;;;;6.55;4.50;;;9.40;99.90;;;;;;5030348;28;20595;-73
2024/03/01 11:19:10;;;;;;;5.70;3.95;;;9.90;99.90;;;;;;5030014;28;20643;-73
2024/03/01 11:21:39;;;;;;;6.53;3.88;;;10.20;99.90;;;;;;5030685;28;20209;-73
2024/03/01 11:24:15;;;;;;;4.53;3.58;;;10.40;99.90;;;;;;5025158;28;20228;-73
2024/03/01 11:26:43;;;;;;;5.25;3.70;;;10.50;99.90;;;;;;5027218;28;20215;-75
2024/03/01 11:29:20;;;;;;;5.97;3.75;;;10.90;99.90;;;;;;5030530;28;20690;-73
2024/03/01 11:31:52;;;;;;;3.65;3.20;;;11.40;99.90;;;;;;5031353;28;20277;-73
2024/03/01 11:34:26;;;;;;;5.50;3.78;;;11.80;99.90;;;;;;5034420;28;20416;-73
2024/03/01 11:37:01;;;;;;;4.28;3.67;;;12.50;99.90;;;;;;5033736;28;20209;-73
2024/03/01 11:39:39;;;;;;;4.10;3.03;;;12.50;99.90;;;;;;5034853;28;20262;-73
2024/03/01 11:42:23;;;;;;;4.45;3.20;;;12.00;99.90;;;;;;5033904;28;20206;-73
2024/03/01 11:45:01;;;;;;;4.80;4.25;;;11.80;99.90;;;;;;5031058;28;20229;-73
2024/03/01 11:47:41;;;;;;;4.20;3.40;;;12.00;99.90;;;;;;5034169;28;20217;-74
2024/03/01 11:50:31;;;;;;;3.60;3.28;;;12.30;99.90;;;;;;5033731;28;20601;-74
2024/03/01 11:53:04;;;;;;;4.07;3.03;;;12.60;99.90;;;;;;5032417;28;20271;-74
2024/03/01 11:55:55;;;;;;;4.15;3.15;;;12.80;99.90;;;;;;5033924;28;20530;-74
2024/03/01 11:58:29;;;;;;;3.75;3.03;;;12.40;99.90;;;;;;5031296;28;20285;-74
2024/03/01 12:01:13;;;;;;;6.32;3.95;;;12.00;99.90;;;;;;5032977;28;20209;-74
2024/03/01 12:04:11;;;;;;;8.18;3.92;;;11.60;99.90;;;;;;5033668;28;20232;-74
2024/03/01 12:06:52;;;;;;;7.10;3.30;;;11.70;99.90;;;;;;5033582;28;20210;-74
2024/03/01 12:09:27;;;;;;;4.65;3.38;;;11.70;99.90;;;;;;5030272;28;20556;-74
2024/03/01 12:12:09;;;;;;;3.67;3.33;;;12.00;99.90;;;;;;5033284;28;20209;-74
2024/03/01 12:14:39;;;;;;;5.00;3.55;;;12.00;99.90;;;;;;5032857;28;20488;-74
2024/03/01 12:17:18;;;;;;;5.85;3.53;;;11.70;99.90;;;;;;5033468;28;20563;-74
2024/03/01 12:19:56;;;;;;;4.65;3.50;;;11.60;99.90;;;;;;5029715;28;20244;-74
2024/03/01 12:22:44;;;;;;;4.80;3.08;;;11.50;99.90;;;;;;5030552;28;20206;-74
2024/03/01 12:25:11;;;;;;;4.55;3.22;;;11.40;99.90;;;;;;5032896;28;20233;-74
2024/03/01 12:27:54;;;;;;;8.85;4.65;;;10.90;99.90;;;;;;5033282;28;20206;-74
2024/03/01 12:30:26;;;;;;;3.30;3.00;;;10.60;99.90;;;;;;5030023;28;20202;-74
2024/03/01 12:33:10;;;;;;;3.97;3.25;;;10.40;99.90;;;;;;5032968;28;20213;-74
2024/03/01 12:35:48;;;;;;;5.30;3.45;;;10.40;99.90;;;;;;5033249;28;20595;-74
2024/03/01 12:38:18;;;;;;;3.25;2.83;;;10.40;99.90;;;;;;5029129;28;20330;-74
2024/03/01 12:40:59;;;;;;;3.70;2.50;;;10.30;99.90;;;;;;5028873;28;20236;-74
2024/03/01 12:43:44;;;;;;;3.83;2.78;;;10.20;99.90;;;;;;5030676;28;20666;-74
2024/03/01 12:46:56;;;;;;;5.90;3.33;;;10.30;99.90;;;;;;5032458;28;20220;-74
2024/03/01 12:49:34;;;;;;;4.70;2.97;;;10.40;99.90;;;;;;4992882;28;20213;-73
2024/03/01 12:52:15;;;;;;;2.70;2.50;;;10.50;99.90;;;;;;5032029;28;20678;-74
2024/03/01 12:54:45;;;;;;;4.45;2.92;;;10.50;99.90;;;;;;5028677;28;20228;-74
2024/03/01 12:57:23;;;;;;;4.45;2.60;;;10.50;99.90;;;;;;5032501;28;20263;-74
2024/03/01 12:59:59;;;;;;;3.80;2.35;;;10.50;99.90;;;;;;5028609;28;20209;-74
2024/03/01 13:02:56;;;;;;;5.72;2.80;;;10.40;99.90;;;;;;5030653;28;20219;-74
2024/03/01 13:05:27;;;;;;;3.58;2.60;;;10.30;99.90;;;;;;5029635;28;20228;-74
2024/03/01 13:07:57;;;;;;;4.38;2.60;;;10.40;99.90;;;;;;5031804;28;20226;-74